Matthew Butler

Scout - Burnley
22 Feb 2028
Dienstag
Verarbeitung

Persönlichkeit

Anpassungsfähigkeit (3) Ehrgeiz (9) Kontroverse (9) Loyalität (10) Druck (17) Professionalität (18) Fairness (9) Temperament (8)

Profil

Trainerstil Demokratisch
Lizenz Kontinentale B
Entschlossenheit 8
Menschenführung 7
Motivation 10
Disziplin 11
Arbeitszufriedenheit
100%
Ermüdung
0%
Rolle Scout
Gehalt 40.9K p/W
Vertrag 14.03.2030

Leistung

Verhalten Gut
Trainingseffektivität
48%
Spielerentwicklung
70%
Verletzungsprävention
45%
Taktische Umsetzung
50%

Letzte Ereignisse

Nahm an einer Scouting-Besprechung teil jetzt
Nahm an einer Scouting-Besprechung teil 7T her
Empfahl ein Transferziel 7T her
Empfahl ein Transferziel 7T her
Nahm an einer Scouting-Besprechung teil 14T her
Empfahl ein Transferziel 14T her
Empfahl ein Transferziel 14T her
Empfahl ein Transferziel 21T her

Aktuell beobachtet

63
Spieler Verein Status Fähigkeit Vertrauen Beobachtet Zuletzt beobachtet Letzte Stimme
Lamine Guèye Barrow AFC Aktiv 121 / 117 72% 1 07.01.2028 Befürworten
Josh Windass Wrexham Aktiv 133 / 128 69% 1 25.01.2027 Befürworten
Nico González Newcastle United Aktiv 156 / 168 40% 2 31.12.2026 -
Marlon Gomes Shakhtar Aktiv 137 / 140 40% 1 31.12.2026 -
Quinten Timber Crystal Palace Aktiv 150 / 147 40% 4 30.12.2026 -
Giacomo Raspadori Atalanta Aktiv 142 / 149 40% 1 30.12.2026 -
Dara O'Shea Ipswich Town Aktiv 144 / 140 40% 2 29.12.2026 -
El Hadji Malick Diouf Brentford Aktiv 147 / 138 40% 1 29.12.2026 -
Amadou Onana Aston Villa Aktiv 152 / 155 40% 4 26.12.2026 -
Kevin Fulham Aktiv 145 / 152 40% 1 26.12.2026 -
Nicolas Jackson Aston Villa Aktiv 151 / 153 40% 1 26.12.2026 -
Juanlu Bournemouth Aktiv 147 / 144 40% 3 24.12.2026 -
Callum Hudson-Odoi Nottingham Forest Aktiv 144 / 156 40% 2 24.12.2026 -
Keane Lewis-Potter Brentford Aktiv 148 / 144 40% 1 23.12.2026 -
Nuno Tavares Lazio Aktiv 152 / 147 40% 1 23.12.2026 -
Michael Kayode Brentford Aktiv 148 / 151 40% 1 22.12.2026 -
Iliman N'Diaye Everton Aktiv 151 / 150 40% 2 20.12.2026 -
Jarrad Branthwaite Everton Aktiv 154 / 157 40% 1 20.12.2026 -
Lewis Ferguson Bologna Aktiv 145 / 149 40% 1 20.12.2026 -
Gabriel Gudmundsson Leeds United Aktiv 147 / 144 40% 1 17.12.2026 -
Curtis Jones Inter Aktiv 151 / 156 40% 2 16.12.2026 -
Tino Livramento Newcastle United Aktiv 153 / 152 40% 2 16.12.2026 -
Dango Ouattara Brentford Aktiv 138 / 151 40% 1 16.12.2026 -
Aurèle Amenda Coventry City Aktiv 130 / 144 40% 1 16.12.2026 -
Ryan Sessegnon Fulham Aktiv 151 / 145 40% 3 14.12.2026 -
Leif Davis Ipswich Town Aktiv 140 / 134 40% 1 14.12.2026 -
James Garner Everton Aktiv 146 / 152 40% 2 12.12.2026 -
Matt O'Riley Brighton Aktiv 154 / 152 40% 1 12.12.2026 -
Hector Ramirez Newcastle United Aktiv 159 / 157 40% 4 10.12.2026 -
Amine Adli Bournemouth Aktiv 145 / 138 40% 1 10.12.2026 -
Enzo Le Fée Sunderland Aktiv 133 / 137 40% 1 10.12.2026 -
Carlos Vicente Birmingham Aktiv 151 / 145 40% 1 08.12.2026 -
Carlos Augusto Inter Aktiv 145 / 148 40% 2 07.12.2026 -
Soungoutou Magassa West Ham United Aktiv 141 / 142 40% 2 07.12.2026 -
Conor Gallagher Tottenham Aktiv 142 / 151 40% 1 07.12.2026 -
Yan Diomandé Real Madrid Aktiv 142 / 153 40% 1 07.12.2026 -
Tyler Adams Bournemouth Aktiv 156 / 145 40% 3 05.12.2026 -
Sven Botman Newcastle United Aktiv 157 / 155 40% 2 05.12.2026 -
Alessandro Buongiorno Sassuolo Aktiv 152 / 155 40% 1 05.12.2026 -
Oumar Solet Udinese Aktiv 147 / 140 40% 1 04.12.2026 -
Micky van de Ven Tottenham Aktiv 156 / 149 40% 1 03.12.2026 -
Aaron Hickey Brentford Aktiv 135 / 143 40% 1 29.11.2026 -
Noni Madueke Arsenal Aktiv 152 / 160 40% 1 29.11.2026 -
Jacob Ramsey Newcastle United Aktiv 152 / 153 40% 1 26.11.2026 -
Morgan Whittaker Middlesbrough Aktiv 122 / 125 40% 1 26.11.2026 -
Wilson Isidor Sunderland Aktiv 128 / 142 40% 1 26.11.2026 -
Noah Sadiki Sunderland Aktiv 144 / 144 40% 3 24.11.2026 -
Lukáš Červ Viktoria Plzen Aktiv 130 / 127 40% 1 24.11.2026 -
Pedro Porro Tottenham Aktiv 146 / 144 40% 1 23.11.2026 -
Elliot Anderson Manchester City Aktiv 148 / 154 40% 1 19.11.2026 -
André Wolverhampton Aktiv 147 / 136 40% 1 18.11.2026 -
Christian Krasnodar Aktiv 142 / 127 40% 1 18.11.2026 -
Ian Maatsen Aston Villa Aktiv 160 / 150 40% 1 13.11.2026 -
Gabriel Martinelli Brighton Aktiv 166 / 167 40% 1 12.11.2026 -
Antony Portland Timbers Aktiv 126 / 120 40% 1 12.11.2026 -
Adrien Truffert Bournemouth Aktiv 143 / 149 40% 1 11.11.2026 -
Sandro Tonali Tottenham Aktiv 180 / 169 40% 2 10.11.2026 -
Pierre Kalulu Juventus Aktiv 151 / 151 40% 1 10.11.2026 -
Yehor Yarmoliuk Brentford Aktiv 155 / 147 40% 1 09.11.2026 -
Diogo Dalot Manchester United Aktiv 155 / 148 40% 1 09.11.2026 -
Samú Al-Nassr Aktiv 131 / 150 40% 1 08.11.2026 -
Jorrel Hato Chelsea Aktiv 140 / 149 40% 1 08.11.2026 -
Jan Paul van Hecke Tottenham Aktiv 166 / 154 40% 1 05.11.2026 -